Time;durP1;ratioP1;P1;durP2;ratioP2;P2;SDS_P1;SDS_P2;PMS_P1;PMS_P2;Temp;Humidity;BMP_temperature;BMP_pressure;BME280_temperature;BME280_humidity;BME280_pressure;Samples;Min_cycle;Max_cycle;Signal;HPM_P1;HPM_P2
2023/10/02 00:05:05;;;;;;;13.45;10.55;;;;;;;;;;5115789;27;20385;-74
2023/10/02 00:07:30;;;;;;;14.00;10.60;;;;;;;;;;5112276;27;20444;-72
2023/10/02 00:09:55;;;;;;;11.13;9.65;;;;;;;;;;5117429;27;20123;-72
2023/10/02 00:12:21;;;;;;;11.90;9.75;;;;;;;;;;5113759;27;20498;-73
2023/10/02 00:14:48;;;;;;;10.85;9.75;;;;;;;;;;5117064;27;20075;-73
2023/10/02 00:17:14;;;;;;;13.10;9.80;;;;;;;;;;5146019;27;20034;-73
2023/10/02 00:19:39;;;;;;;11.18;9.82;;;;;;;;;;5116766;27;20024;-74
2023/10/02 00:22:08;;;;;;;11.63;10.25;;;;;;;;;;5117013;27;20471;-73
2023/10/02 00:24:47;;;;;;;11.45;10.15;;;;;;;;;;5116751;27;20119;-72
2023/10/02 00:27:13;;;;;;;12.80;9.93;;;;;;;;;;5114662;27;20099;-74
2023/10/02 00:29:57;;;;;;;12.55;10.05;;;;;;;;;;5114049;27;20023;-72
2023/10/02 00:32:26;;;;;;;12.32;10.32;;;;;;;;;;5109034;27;20461;-72
2023/10/02 00:34:52;;;;;;;11.38;10.18;;;;;;;;;;5116822;27;20055;-72
2023/10/02 00:37:18;;;;;;;11.90;10.70;;;;;;;;;;5115493;27;20034;-72
2023/10/02 00:39:52;;;;;;;13.15;10.15;;;;;;;;;;5112565;27;20034;-72
2023/10/02 00:42:28;;;;;;;10.82;9.73;;;;;;;;;;5116096;27;20028;-73
2023/10/02 00:44:54;;;;;;;10.35;9.05;;;;;;;;;;5114002;27;20023;-73
2023/10/02 00:47:38;;;;;;;10.85;9.48;;;;;;;;;;5115431;27;20023;-73
2023/10/02 00:50:24;;;;;;;12.18;9.35;;;;;;;;;;5115061;27;20358;-75
2023/10/02 00:52:56;;;;;;;13.90;10.10;;;;;;;;;;5115301;27;20047;-72
2023/10/02 00:55:26;;;;;;;11.15;9.90;;;;;;;;;;5116543;27;20023;-73
2023/10/02 00:57:56;;;;;;;12.18;9.18;;;;;;;;;;5148500;27;20027;-74
2023/10/02 01:00:22;;;;;;;;;;;;;;;;;;5114630;27;20115;-73
2023/10/02 01:02:51;;;;;;;10.70;9.25;;;;;;;;;;5147924;27;20313;-74
2023/10/02 01:05:30;;;;;;;10.38;8.90;;;;;;;;;;5114581;27;20023;-72
2023/10/02 01:07:56;;;;;;;11.55;8.80;;;;;;;;;;5114385;27;20023;-75
2023/10/02 01:10:23;;;;;;;10.77;8.70;;;;;;;;;;5110432;27;20023;-73
2023/10/02 01:13:01;;;;;;;10.95;9.77;;;;;;;;;;5113767;27;20031;-73
2023/10/02 01:15:27;;;;;;;10.27;8.70;;;;;;;;;;5106139;27;20099;-73
2023/10/02 01:17:53;;;;;;;12.68;8.63;;;;;;;;;;5114101;27;20015;-73
2023/10/02 01:20:32;;;;;;;10.40;8.07;;;;;;;;;;5115887;27;20034;-72
2023/10/02 01:23:11;;;;;;;10.50;8.80;;;;;;;;;;5114086;27;20051;-74
2023/10/02 01:25:40;;;;;;;11.10;9.45;;;;;;;;;;5110274;27;20029;-72
2023/10/02 01:28:09;;;;;;;12.85;8.65;;;;;;;;;;5112529;27;20122;-73
2023/10/02 01:30:35;;;;;;;13.25;9.35;;;;;;;;;;5115217;27;20023;-72
2023/10/02 01:35:46;;;;;;;14.55;8.98;;;;;;;;;;5115804;27;20038;-73
2023/10/02 01:38:31;;;;;;;9.63;8.68;;;;;;;;;;5113728;27;20032;-73
2023/10/02 01:41:10;;;;;;;12.20;8.77;;;;;;;;;;5116121;27;20038;-72
2023/10/02 01:43:39;;;;;;;12.00;9.18;;;;;;;;;;5112961;27;20887;-72
2023/10/02 01:46:05;;;;;;;9.65;8.30;;;;;;;;;;5115288;27;20031;-72
2023/10/02 01:48:41;;;;;;;16.08;9.05;;;;;;;;;;5113635;27;20055;-72
2023/10/02 01:51:20;;;;;;;10.07;8.20;;;;;;;;;;5113041;27;20507;-72
2023/10/02 01:53:49;;;;;;;9.90;8.90;;;;;;;;;;5116775;27;20055;-72
2023/10/02 01:56:19;;;;;;;14.65;9.60;;;;;;;;;;5110560;28;20358;-73
2023/10/02 01:58:47;;;;;;;12.63;9.50;;;;;;;;;;5106013;28;20034;-72
2023/10/02 02:01:13;;;;;;;11.02;9.45;;;;;;;;;;5113090;27;20404;-72
2023/10/02 02:03:43;;;;;;;11.15;8.93;;;;;;;;;;5112914;28;20035;-74
2023/10/02 02:06:11;;;;;;;;;;;;;;;;;;5114607;28;20048;-71
2023/10/02 02:08:36;;;;;;;9.48;8.40;;;;;;;;;;5115799;28;19915;-74
2023/10/02 02:11:14;;;;;;;9.50;7.75;;;;;;;;;;5106124;28;20019;-72
2023/10/02 02:13:44;;;;;;;11.82;7.88;;;;;;;;;;5113828;27;20408;-73
2023/10/02 02:16:14;;;;;;;9.40;7.68;;;;;;;;;;5115603;28;22394;-73
2023/10/02 02:18:42;;;;;;;12.48;8.27;;;;;;;;;;5111834;27;20060;-73
2023/10/02 02:21:10;;;;;;;9.25;7.28;;;;;;;;;;5104219;27;20031;-76
2023/10/02 02:23:36;;;;;;;8.55;6.85;;;;;;;;;;5113767;28;20451;-73
2023/10/02 02:26:01;;;;;;;10.10;7.13;;;;;;;;;;5115236;27;20016;-73
2023/10/02 02:28:28;;;;;;;9.85;6.90;;;;;;;;;;5114562;28;20496;-75
2023/10/02 02:30:55;;;;;;;9.98;7.10;;;;;;;;;;5114398;28;20029;-74
2023/10/02 02:33:34;;;;;;;9.65;7.68;;;;;;;;;;5112969;27;20046;-73
2023/10/02 02:36:05;;;;;;;9.07;6.70;;;;;;;;;;5114244;28;20024;-74
2023/10/02 02:38:33;;;;;;;10.77;7.70;;;;;;;;;;5114405;27;20366;-73
2023/10/02 02:41:05;;;;;;;8.45;7.13;;;;;;;;;;5112049;28;20440;-74
2023/10/02 02:43:32;;;;;;;10.20;7.35;;;;;;;;;;5115180;28;20012;-72
2023/10/02 02:45:57;;;;;;;9.98;6.90;;;;;;;;;;5107729;27;20027;-72
2023/10/02 02:48:25;;;;;;;9.02;7.20;;;;;;;;;;5109266;27;20318;-73
2023/10/02 02:50:51;;;;;;;13.65;7.53;;;;;;;;;;5115452;28;20034;-73
2023/10/02 02:53:22;;;;;;;10.95;7.03;;;;;;;;;;5104952;28;20035;-72
2023/10/02 02:56:14;;;;;;;14.48;7.43;;;;;;;;;;5110391;27;20411;-72
2023/10/02 02:58:40;;;;;;;7.85;6.40;;;;;;;;;;5110954;28;20447;-72
2023/10/02 03:01:11;;;;;;;14.05;7.63;;;;;;;;;;5110467;28;20047;-72
2023/10/02 03:03:41;;;;;;;30.08;9.85;;;;;;;;;;5106341;28;20062;-74
2023/10/02 03:06:07;;;;;;;;;;;;;;;;;;5103298;28;20031;-73
2023/10/02 03:08:38;;;;;;;19.02;8.85;;;;;;;;;;5118790;27;19907;-76
2023/10/02 03:11:07;;;;;;;18.52;8.43;;;;;;;;;;5117366;27;20089;-72
2023/10/02 03:13:35;;;;;;;15.40;8.45;;;;;;;;;;5117466;27;20031;-72
2023/10/02 03:16:08;;;;;;;12.45;8.32;;;;;;;;;;5114893;27;20926;-75
2023/10/02 03:18:36;;;;;;;10.20;8.15;;;;;;;;;;5114996;27;20031;-75
2023/10/02 03:21:14;;;;;;;13.95;8.57;;;;;;;;;;5117544;27;20008;-75
2023/10/02 03:23:41;;;;;;;9.80;8.77;;;;;;;;;;5111064;27;20085;-73
2023/10/02 03:26:21;;;;;;;10.93;8.50;;;;;;;;;;5116831;27;20059;-73
2023/10/02 03:28:47;;;;;;;10.00;8.00;;;;;;;;;;5114631;27;20023;-73
2023/10/02 03:31:16;;;;;;;11.07;8.10;;;;;;;;;;5107518;27;20087;-73
2023/10/02 03:33:42;;;;;;;9.10;7.30;;;;;;;;;;5112445;27;20043;-73
2023/10/02 03:36:10;;;;;;;10.95;8.57;;;;;;;;;;5117356;27;20331;-75
2023/10/02 03:38:41;;;;;;;9.55;8.18;;;;;;;;;;5115544;27;20027;-73
2023/10/02 03:41:07;;;;;;;11.13;7.65;;;;;;;;;;5116608;27;20024;-74
2023/10/02 03:43:37;;;;;;;13.23;7.70;;;;;;;;;;5116278;27;20378;-73
2023/10/02 03:46:14;;;;;;;7.50;6.47;;;;;;;;;;5117135;27;20011;-72
2023/10/02 03:48:40;;;;;;;12.45;7.88;;;;;;;;;;5116067;27;20415;-74
2023/10/02 03:51:08;;;;;;;10.93;7.78;;;;;;;;;;5114652;27;20031;-74
2023/10/02 03:53:36;;;;;;;9.20;7.72;;;;;;;;;;5112175;27;20027;-74
2023/10/02 03:58:50;;;;;;;13.13;9.73;;;;;;;;;;5115064;27;20127;-74
2023/10/02 04:01:17;;;;;;;13.88;10.23;;;;;;;;;;5114137;27;20030;-74
2023/10/02 04:04:18;;;;;;;15.45;9.77;;;;;;;;;;5116185;27;20031;-74
2023/10/02 04:06:44;;;;;;;12.43;9.07;;;;;;;;;;5105224;27;20109;-72
2023/10/02 04:09:26;;;;;;;10.70;9.02;;;;;;;;;;5105252;27;20502;-75
2023/10/02 04:11:55;;;;;;;12.10;10.75;;;;;;;;;;5100998;27;20035;-73
2023/10/02 04:14:33;;;;;;;15.18;9.82;;;;;;;;;;5113881;27;20451;-76
2023/10/02 04:19:35;;;;;;;13.68;9.20;;;;;;;;;;5115184;27;20033;-73
2023/10/02 04:22:06;;;;;;;11.43;8.80;;;;;;;;;;5117240;27;20031;-75
2023/10/02 04:24:50;;;;;;;11.80;8.48;;;;;;;;;;5149802;27;20510;-73
2023/10/02 04:27:18;;;;;;;11.52;8.93;;;;;;;;;;5138767;27;20031;-71
2023/10/02 04:30:06;;;;;;;11.15;8.05;;;;;;;;;;5105165;27;20449;-71
2023/10/02 04:32:32;;;;;;;12.23;8.88;;;;;;;;;;5106985;27;20042;-74
2023/10/02 04:34:57;;;;;;;12.82;7.53;;;;;;;;;;5107676;27;20047;-76
2023/10/02 04:37:23;;;;;;;10.80;8.02;;;;;;;;;;5114091;27;20028;-77
2023/10/02 04:39:54;;;;;;;12.32;7.30;;;;;;;;;;5114555;27;20024;-76
2023/10/02 04:42:21;;;;;;;12.65;7.60;;;;;;;;;;5110337;27;20056;-75
2023/10/02 04:44:48;;;;;;;19.30;7.60;;;;;;;;;;5110013;27;20043;-75
2023/10/02 04:47:18;;;;;;;10.10;8.43;;;;;;;;;;5111865;27;20102;-75
2023/10/02 04:55:23;;;;;;;21.70;16.05;;;;;;;;;;5112723;27;20151;-75
2023/10/02 04:57:52;;;;;;;18.17;13.30;;;;;;;;;;5114104;27;20587;-76
2023/10/02 05:00:33;;;;;;;13.80;10.27;;;;;;;;;;5112757;27;20082;-77
2023/10/02 05:03:18;;;;;;;12.75;9.13;;;;;;;;;;5109117;27;20041;-75
2023/10/02 05:05:49;;;;;;;11.40;6.95;;;;;;;;;;5099212;27;20461;-75
2023/10/02 05:08:19;;;;;;;9.95;6.68;;;;;;;;;;5100882;27;20111;-74
2023/10/02 05:10:49;;;;;;;9.15;6.55;;;;;;;;;;5102071;27;20034;-75
2023/10/02 05:13:44;;;;;;;15.57;12.07;;;;;;;;;;5094785;27;20066;-72
2023/10/02 05:16:12;;;;;;;26.55;22.08;;;;;;;;;;5107569;27;20474;-73
2023/10/02 05:18:47;;;;;;;27.25;23.17;;;;;;;;;;5098347;27;20601;-70
2023/10/02 05:21:16;;;;;;;19.95;17.85;;;;;;;;;;5111599;27;20068;-74
2023/10/02 05:23:43;;;;;;;17.23;14.48;;;;;;;;;;5099080;27;20019;-73
2023/10/02 05:26:29;;;;;;;12.85;10.75;;;;;;;;;;5095897;27;23208;-73
2023/10/02 05:28:55;;;;;;;10.23;8.77;;;;;;;;;;5102240;27;20413;-72
2023/10/02 05:31:21;;;;;;;13.60;9.30;;;;;;;;;;5099589;27;20031;-72
2023/10/02 05:33:48;;;;;;;9.68;8.15;;;;;;;;;;5113395;27;20039;-71
2023/10/02 05:36:19;;;;;;;10.20;8.35;;;;;;;;;;5114398;27;20023;-72
2023/10/02 05:39:27;;;;;;;10.23;8.45;;;;;;;;;;5107988;27;20059;-72
2023/10/02 05:41:41;;;;;;;12.65;8.43;;;;;;;;;;5113862;27;20049;-72
2023/10/02 05:44:13;;;;;;;9.90;7.93;;;;;;;;;;5115031;27;20023;-73
2023/10/02 05:46:53;;;;;;;9.52;8.52;;;;;;;;;;5114504;27;20015;-75
2023/10/02 05:49:23;;;;;;;12.13;8.32;;;;;;;;;;5097983;27;20029;-71
2023/10/02 05:51:48;;;;;;;12.70;9.15;;;;;;;;;;5114363;27;20033;-73
2023/10/02 05:54:14;;;;;;;13.02;9.73;;;;;;;;;;5103234;28;20397;-72
2023/10/02 05:56:40;;;;;;;10.40;8.85;;;;;;;;;;5105401;27;20043;-72
2023/10/02 05:59:06;;;;;;;12.00;10.10;;;;;;;;;;5114344;28;20401;-74
2023/10/02 06:01:34;;;;;;;9.57;8.43;;;;;;;;;;5114360;28;20034;-73
2023/10/02 06:04:04;;;;;;;15.85;9.52;;;;;;;;;;5111447;27;20032;-73
2023/10/02 06:06:35;;;;;;;10.50;8.68;;;;;;;;;;5115777;28;20363;-74
2023/10/02 06:09:03;;;;;;;11.50;7.50;;;;;;;;;;5113109;27;20047;-73
2023/10/02 06:11:33;;;;;;;14.02;8.00;;;;;;;;;;5113170;28;20458;-74
2023/10/02 06:14:22;;;;;;;16.90;8.57;;;;;;;;;;5115270;28;20462;-73
2023/10/02 06:16:48;;;;;;;18.95;8.48;;;;;;;;;;5115252;27;20039;-74
2023/10/02 06:19:13;;;;;;;10.43;7.68;;;;;;;;;;5111429;27;20207;-75
2023/10/02 06:21:45;;;;;;;11.55;7.90;;;;;;;;;;5114708;28;20106;-73
2023/10/02 06:24:18;;;;;;;12.05;7.80;;;;;;;;;;5113366;28;20019;-73
2023/10/02 06:26:49;;;;;;;12.32;8.65;;;;;;;;;;5114142;28;20019;-72
2023/10/02 06:29:22;;;;;;;10.27;7.30;;;;;;;;;;5110820;28;20031;-72
2023/10/02 06:32:02;;;;;;;12.50;6.82;;;;;;;;;;5112659;28;20050;-73
2023/10/02 06:34:36;;;;;;;10.07;6.70;;;;;;;;;;5111843;28;20346;-72
2023/10/02 06:37:07;;;;;;;12.57;6.78;;;;;;;;;;5113684;28;20039;-73
2023/10/02 06:39:35;;;;;;;9.75;6.18;;;;;;;;;;5112302;28;20023;-70
2023/10/02 06:42:04;;;;;;;10.98;6.65;;;;;;;;;;5113777;27;20027;-71
2023/10/02 06:44:35;;;;;;;10.98;6.18;;;;;;;;;;5116678;27;20336;-72
2023/10/02 06:47:04;;;;;;;11.48;6.82;;;;;;;;;;5117786;27;20038;-71
2023/10/02 06:49:30;;;;;;;9.18;6.25;;;;;;;;;;5117664;27;20027;-73
2023/10/02 06:52:10;;;;;;;8.45;5.63;;;;;;;;;;5116768;27;20027;-72
2023/10/02 06:54:42;;;;;;;10.85;6.18;;;;;;;;;;5118079;27;20019;-71
2023/10/02 06:57:11;;;;;;;10.80;6.22;;;;;;;;;;5115983;27;20034;-71
2023/10/02 06:59:38;;;;;;;12.05;6.68;;;;;;;;;;5118722;27;20027;-71
2023/10/02 07:02:06;;;;;;;10.55;6.07;;;;;;;;;;5114935;27;20032;-72
2023/10/02 07:04:33;;;;;;;8.97;6.77;;;;;;;;;;5118413;27;20019;-71
2023/10/02 07:07:03;;;;;;;8.70;6.20;;;;;;;;;;5116571;27;20022;-71
2023/10/02 07:09:33;;;;;;;12.95;5.45;;;;;;;;;;5117370;27;20059;-70
2023/10/02 07:12:08;;;;;;;11.10;5.63;;;;;;;;;;5118124;27;20034;-74
2023/10/02 07:14:36;;;;;;;14.15;10.32;;;;;;;;;;5115742;27;20172;-73
2023/10/02 07:17:11;;;;;;;10.15;6.22;;;;;;;;;;5150150;27;20023;-74
2023/10/02 07:19:44;;;;;;;10.88;6.10;;;;;;;;;;5118688;27;20031;-73
2023/10/02 07:22:16;;;;;;;10.50;6.43;;;;;;;;;;5117532;27;20031;-73
2023/10/02 07:24:42;;;;;;;11.15;5.35;;;;;;;;;;5117369;27;20015;-73
2023/10/02 07:27:22;;;;;;;8.73;5.40;;;;;;;;;;5116318;27;20032;-72
2023/10/02 07:29:51;;;;;;;9.00;5.90;;;;;;;;;;5119519;27;20023;-71
2023/10/02 07:32:18;;;;;;;8.20;5.80;;;;;;;;;;5116925;27;20034;-72
2023/10/02 07:34:45;;;;;;;11.15;6.10;;;;;;;;;;5117329;27;20035;-73
2023/10/02 07:37:13;;;;;;;7.70;5.15;;;;;;;;;;5117853;27;20031;-72
2023/10/02 07:39:38;;;;;;;10.27;5.45;;;;;;;;;;5114281;27;20027;-72
2023/10/02 07:42:04;;;;;;;7.45;5.18;;;;;;;;;;5119041;27;20346;-75
2023/10/02 07:44:38;;;;;;;10.35;5.47;;;;;;;;;;5114903;27;20023;-75
2023/10/02 07:47:10;;;;;;;9.20;5.20;;;;;;;;;;5116670;27;20453;-73
2023/10/02 07:49:37;;;;;;;9.15;5.65;;;;;;;;;;5116592;27;20046;-73
2023/10/02 07:52:04;;;;;;;6.13;5.10;;;;;;;;;;5115946;27;20023;-75
2023/10/02 07:54:44;;;;;;;7.60;5.20;;;;;;;;;;5114827;27;20031;-73
2023/10/02 07:57:12;;;;;;;12.05;4.97;;;;;;;;;;5115904;27;20366;-74
2023/10/02 07:59:38;;;;;;;8.13;5.30;;;;;;;;;;5116737;27;20083;-73
2023/10/02 08:02:21;;;;;;;6.90;4.80;;;;;;;;;;5117746;27;20019;-73
2023/10/02 08:04:47;;;;;;;8.63;5.72;;;;;;;;;;5116684;27;20019;-74
2023/10/02 08:07:13;;;;;;;7.00;5.20;;;;;;;;;;5117227;27;20023;-74
2023/10/02 08:09:39;;;;;;;9.57;5.43;;;;;;;;;;5114098;27;20015;-71
2023/10/02 08:12:08;;;;;;;11.10;5.65;;;;;;;;;;5116631;27;20046;-73
2023/10/02 08:14:42;;;;;;;9.52;5.28;;;;;;;;;;5116827;27;20038;-76
2023/10/02 08:19:56;;;;;;;9.75;5.47;;;;;;;;;;5114915;27;20416;-72
2023/10/02 08:22:23;;;;;;;8.57;4.63;;;;;;;;;;5116313;27;20491;-73
2023/10/02 08:24:49;;;;;;;6.93;5.38;;;;;;;;;;5116220;27;20024;-73
2023/10/02 08:27:15;;;;;;;8.13;4.97;;;;;;;;;;5114191;27;20351;-73
2023/10/02 08:29:41;;;;;;;9.52;5.00;;;;;;;;;;5115670;27;20022;-74
2023/10/02 08:32:07;;;;;;;8.27;5.22;;;;;;;;;;5114703;27;20035;-71
2023/10/02 08:34:32;;;;;;;8.60;5.43;;;;;;;;;;5115010;27;20051;-71
2023/10/02 08:37:09;;;;;;;6.35;4.15;;;;;;;;;;5115726;27;20031;-72
2023/10/02 08:39:36;;;;;;;6.80;4.57;;;;;;;;;;5114256;27;20405;-71
2023/10/02 08:42:09;;;;;;;5.82;4.50;;;;;;;;;;5116779;27;20122;-72
2023/10/02 08:44:38;;;;;;;7.10;4.95;;;;;;;;;;5116398;27;20369;-72
2023/10/02 08:47:35;;;;;;;5.20;4.35;;;;;;;;;;5113160;27;20034;-74
2023/10/02 08:50:04;;;;;;;6.50;4.45;;;;;;;;;;5112533;27;20027;-73
2023/10/02 08:52:38;;;;;;;6.75;4.50;;;;;;;;;;5113963;27;20141;-73
2023/10/02 08:55:51;;;;;;;5.20;4.20;;;;;;;;;;5115955;27;20142;-72
2023/10/02 08:58:20;;;;;;;8.90;5.90;;;;;;;;;;5113574;27;20058;-72
2023/10/02 09:03:41;;;;;;;7.30;5.13;;;;;;;;;;5114207;27;20350;-72
2023/10/02 09:11:35;;;;;;;9.18;7.15;;;;;;;;;;5114004;27;20423;-75
2023/10/02 09:14:12;;;;;;;9.35;7.88;;;;;;;;;;5113356;27;20035;-75
2023/10/02 09:16:38;;;;;;;8.02;4.82;;;;;;;;;;5117762;27;20050;-74
2023/10/02 09:19:28;;;;;;;7.05;5.15;;;;;;;;;;5114893;27;20055;-72
2023/10/02 09:22:06;;;;;;;9.43;5.10;;;;;;;;;;5113429;27;20399;-72
2023/10/02 09:24:31;;;;;;;8.90;5.32;;;;;;;;;;5113921;27;21370;-72
2023/10/02 09:27:20;;;;;;;6.72;4.75;;;;;;;;;;5114412;27;20023;-73
2023/10/02 09:29:45;;;;;;;7.70;4.55;;;;;;;;;;5111846;27;20028;-73
2023/10/02 09:32:21;;;;;;;6.78;5.03;;;;;;;;;;5116127;27;20038;-72
2023/10/02 09:35:08;;;;;;;6.55;4.50;;;;;;;;;;5113949;27;20039;-73
2023/10/02 09:37:35;;;;;;;8.13;5.13;;;;;;;;;;5112840;27;20034;-73
2023/10/02 09:40:03;;;;;;;6.35;4.32;;;;;;;;;;5117557;27;20122;-76
2023/10/02 09:42:33;;;;;;;6.63;4.77;;;;;;;;;;5112474;27;20092;-73
2023/10/02 09:45:08;;;;;;;7.85;6.85;;;;;;;;;;5114799;27;20614;-74
2023/10/02 09:47:34;;;;;;;8.40;4.80;;;;;;;;;;5116766;27;20032;-75
2023/10/02 09:50:12;;;;;;;6.97;4.57;;;;;;;;;;5112667;27;20025;-76
2023/10/02 09:53:08;;;;;;;5.97;4.30;;;;;;;;;;5114896;27;20036;-75
2023/10/02 09:55:40;;;;;;;7.65;4.85;;;;;;;;;;5112832;28;20065;-74
2023/10/02 09:58:26;;;;;;;5.75;4.18;;;;;;;;;;5115876;27;20510;-74
2023/10/02 10:01:21;;;;;;;8.75;7.85;;;;;;;;;;5116360;28;20380;-73
2023/10/02 10:03:50;;;;;;;5.90;4.85;;;;;;;;;;5114304;28;20058;-73
2023/10/02 10:06:16;;;;;;;7.03;3.97;;;;;;;;;;5114613;28;20455;-73
2023/10/02 10:11:38;;;;;;;7.22;4.55;;;;;;;;;;5115129;28;20124;-73
2023/10/02 10:14:35;;;;;;;7.30;4.43;;;;;;;;;;5113240;27;20058;-73
2023/10/02 10:17:12;;;;;;;6.90;3.90;;;;;;;;;;5111859;27;20034;-75
2023/10/02 10:19:38;;;;;;;7.13;4.25;;;;;;;;;;5120339;27;20023;-73
2023/10/02 10:22:10;;;;;;;6.00;3.80;;;;;;;;;;5120362;27;20030;-73
2023/10/02 10:24:51;;;;;;;6.00;3.75;;;;;;;;;;5120234;27;20027;-74
2023/10/02 10:27:36;;;;;;;6.57;4.10;;;;;;;;;;5119637;27;20023;-73
2023/10/02 10:30:24;;;;;;;6.22;4.20;;;;;;;;;;5106870;27;20090;-73
2023/10/02 10:35:49;;;;;;;5.95;4.32;;;;;;;;;;5120354;27;20378;-75
2023/10/02 10:40:54;;;;;;;5.45;3.70;;;;;;;;;;5116426;27;20091;-73
2023/10/02 10:43:21;;;;;;;6.05;4.40;;;;;;;;;;5115557;27;20110;-73
2023/10/02 10:45:48;;;;;;;5.95;4.13;;;;;;;;;;5116254;27;20023;-72
2023/10/02 10:48:23;;;;;;;6.78;3.67;;;;;;;;;;5117649;27;20023;-75
2023/10/02 10:51:01;;;;;;;5.32;3.65;;;;;;;;;;5116519;27;20371;-74
2023/10/02 10:53:27;;;;;;;6.33;3.80;;;;;;;;;;5114586;27;20354;-75
2023/10/02 10:55:56;;;;;;;6.75;3.85;;;;;;;;;;5117649;27;20696;-75
2023/10/02 10:58:33;;;;;;;6.20;4.10;;;;;;;;;;5117416;27;20358;-73
2023/10/02 11:01:07;;;;;;;5.68;3.65;;;;;;;;;;5118119;27;20039;-74
2023/10/02 11:03:38;;;;;;;8.73;6.60;;;;;;;;;;5118901;27;20138;-76
2023/10/02 11:06:04;;;;;;;6.60;3.63;;;;;;;;;;5116510;27;20031;-73
2023/10/02 11:08:30;;;;;;;4.35;3.33;;;;;;;;;;5115700;27;20031;-75
2023/10/02 11:11:04;;;;;;;6.82;3.63;;;;;;;;;;5115881;27;20026;-74
2023/10/02 11:14:20;;;;;;;5.18;4.05;;;;;;;;;;5116175;27;20039;-75
2023/10/02 11:16:31;;;;;;;5.95;4.10;;;;;;;;;;5113546;27;20121;-75
2023/10/02 11:19:21;;;;;;;6.65;4.60;;;;;;;;;;5119015;27;20430;-75
2023/10/02 11:22:21;;;;;;;5.05;3.95;;;;;;;;;;5118461;27;20029;-73
2023/10/02 11:24:46;;;;;;;7.82;3.97;;;;;;;;;;5117638;27;20442;-76
2023/10/02 11:27:15;;;;;;;6.57;3.60;;;;;;;;;;5118271;27;20050;-75
2023/10/02 11:29:41;;;;;;;6.53;3.78;;;;;;;;;;5114387;27;20223;-75
2023/10/02 11:32:19;;;;;;;7.45;4.60;;;;;;;;;;5114460;27;20031;-75
2023/10/02 11:34:48;;;;;;;5.18;3.97;;;;;;;;;;5117222;27;20038;-74
2023/10/02 11:37:14;;;;;;;7.18;4.72;;;;;;;;;;5114559;27;20031;-75
2023/10/02 11:39:40;;;;;;;6.13;3.90;;;;;;;;;;5115542;27;20027;-74
2023/10/02 11:42:06;;;;;;;4.97;3.60;;;;;;;;;;5117721;27;20105;-73
2023/10/02 11:44:32;;;;;;;6.07;4.78;;;;;;;;;;5116076;27;20015;-77
2023/10/02 11:46:59;;;;;;;6.38;4.35;;;;;;;;;;5116949;27;20050;-75
2023/10/02 11:49:27;;;;;;;6.72;4.05;;;;;;;;;;5117138;27;20546;-74
2023/10/02 11:51:52;;;;;;;5.35;3.78;;;;;;;;;;5115723;27;20457;-76
2023/10/02 11:54:17;;;;;;;5.22;3.50;;;;;;;;;;5118298;27;20022;-74
2023/10/02 11:56:43;;;;;;;5.55;3.92;;;;;;;;;;5116443;27;20036;-74
2023/10/02 11:59:14;;;;;;;5.20;4.03;;;;;;;;;;5110722;27;20023;-74
2023/10/02 12:01:40;;;;;;;5.47;3.63;;;;;;;;;;5113268;27;20033;-75
2023/10/02 12:04:05;;;;;;;4.43;3.65;;;;;;;;;;5118685;27;20023;-74
2023/10/02 12:06:31;;;;;;;5.05;4.13;;;;;;;;;;5116891;27;20095;-74
2023/10/02 12:08:57;;;;;;;6.43;4.72;;;;;;;;;;5116729;27;20017;-76
2023/10/02 12:11:24;;;;;;;6.63;5.70;;;;;;;;;;5116876;27;20040;-75
2023/10/02 12:13:50;;;;;;;4.68;3.83;;;;;;;;;;5119185;27;20023;-75
2023/10/02 12:16:16;;;;;;;7.55;4.25;;;;;;;;;;5116544;27;20040;-75
2023/10/02 12:18:41;;;;;;;5.93;4.00;;;;;;;;;;5118363;27;20450;-76
2023/10/02 12:21:14;;;;;;;6.53;4.53;;;;;;;;;;5116392;27;20365;-76
2023/10/02 12:23:43;;;;;;;4.75;3.55;;;;;;;;;;5113094;27;20027;-75
2023/10/02 12:26:09;;;;;;;;;;;;;;;;;;5117306;27;20346;-74
2023/10/02 12:28:35;;;;;;;6.28;4.28;;;;;;;;;;5115429;27;19908;-76
2023/10/02 12:31:06;;;;;;;6.70;4.15;;;;;;;;;;5113173;27;20381;-75
2023/10/02 12:33:35;;;;;;;7.10;4.28;;;;;;;;;;5117171;27;20099;-75
2023/10/02 12:36:00;;;;;;;7.97;4.53;;;;;;;;;;5113416;27;20407;-76
2023/10/02 12:38:26;;;;;;;5.20;4.13;;;;;;;;;;5114600;27;20146;-74
2023/10/02 12:40:51;;;;;;;7.60;4.35;;;;;;;;;;5111758;27;20026;-75
2023/10/02 12:43:17;;;;;;;6.68;4.70;;;;;;;;;;5117667;27;20027;-76
2023/10/02 12:45:43;;;;;;;8.20;4.45;;;;;;;;;;5117685;27;20121;-76
2023/10/02 12:48:09;;;;;;;5.47;4.05;;;;;;;;;;5106305;27;20543;-77
2023/10/02 12:50:38;;;;;;;5.30;4.15;;;;;;;;;;5115281;27;20035;-78
2023/10/02 12:53:04;;;;;;;10.48;5.05;;;;;;;;;;5113760;27;20027;-76
2023/10/02 12:55:32;;;;;;;5.63;4.18;;;;;;;;;;5113270;27;20037;-79
2023/10/02 12:57:57;;;;;;;6.88;4.90;;;;;;;;;;5117607;27;20368;-77
2023/10/02 13:00:24;;;;;;;5.85;4.63;;;;;;;;;;5108560;27;20023;-76
2023/10/02 13:02:49;;;;;;;7.72;5.90;;;;;;;;;;5115190;27;20051;-77
2023/10/02 13:05:15;;;;;;;9.70;5.90;;;;;;;;;;5115482;27;20154;-77
2023/10/02 13:07:41;;;;;;;7.68;5.50;;;;;;;;;;5115306;27;20030;-76
2023/10/02 13:10:08;;;;;;;9.05;5.80;;;;;;;;;;5115601;27;20024;-77
2023/10/02 13:12:34;;;;;;;6.43;5.35;;;;;;;;;;5112180;27;20035;-79
2023/10/02 13:14:59;;;;;;;6.97;5.15;;;;;;;;;;5092394;27;20023;-77
2023/10/02 13:17:25;;;;;;;9.68;6.05;;;;;;;;;;5103227;27;20405;-76
2023/10/02 13:19:51;;;;;;;9.80;5.85;;;;;;;;;;5104787;27;20027;-77
2023/10/02 13:22:16;;;;;;;7.75;5.15;;;;;;;;;;5108025;27;20451;-78
2023/10/02 13:24:42;;;;;;;7.63;5.95;;;;;;;;;;5114251;27;20102;-78
2023/10/02 13:27:08;;;;;;;11.05;8.23;;;;;;;;;;5100291;27;20031;-77
2023/10/02 13:29:34;;;;;;;12.57;10.95;;;;;;;;;;5102938;27;20069;-77
2023/10/02 13:32:01;;;;;;;8.23;6.63;;;;;;;;;;5099271;27;20027;-76
2023/10/02 13:34:26;;;;;;;8.75;6.43;;;;;;;;;;5100717;27;20054;-79
2023/10/02 13:36:52;;;;;;;9.32;6.43;;;;;;;;;;5102766;27;20027;-76
2023/10/02 13:39:18;;;;;;;8.20;5.95;;;;;;;;;;5096574;27;20027;-77
2023/10/02 13:41:43;;;;;;;9.70;6.65;;;;;;;;;;5089450;27;20027;-75
2023/10/02 13:44:09;;;;;;;9.73;6.28;;;;;;;;;;5094799;27;20093;-75
2023/10/02 13:46:38;;;;;;;9.70;6.05;;;;;;;;;;5100629;27;20098;-76
2023/10/02 13:49:04;;;;;;;7.97;6.22;;;;;;;;;;5092911;27;20019;-76
2023/10/02 13:51:31;;;;;;;7.53;5.97;;;;;;;;;;5097986;27;20098;-77
2023/10/02 13:53:57;;;;;;;9.55;6.35;;;;;;;;;;5103144;27;20106;-75
2023/10/02 13:56:25;;;;;;;9.57;6.65;;;;;;;;;;5100219;27;20403;-76
2023/10/02 13:58:51;;;;;;;7.97;5.63;;;;;;;;;;5102643;27;20027;-74
2023/10/02 14:01:19;;;;;;;10.15;6.53;;;;;;;;;;5101556;28;20027;-75
2023/10/02 14:03:45;;;;;;;10.57;6.28;;;;;;;;;;5103259;27;20106;-74
2023/10/02 14:06:12;;;;;;;9.23;6.40;;;;;;;;;;5103694;27;20045;-74
2023/10/02 14:08:39;;;;;;;9.20;6.57;;;;;;;;;;5102230;27;20705;-75
2023/10/02 14:11:05;;;;;;;8.63;5.95;;;;;;;;;;5101032;28;20019;-75
2023/10/02 14:13:31;;;;;;;8.93;6.43;;;;;;;;;;5101046;28;20665;-73
2023/10/02 14:16:02;;;;;;;8.43;6.57;;;;;;;;;;5099447;28;20811;-76
2023/10/02 14:18:28;;;;;;;9.75;7.10;;;;;;;;;;5103347;27;20141;-75
2023/10/02 14:20:57;;;;;;;8.88;6.88;;;;;;;;;;5098559;27;20150;-74
2023/10/02 14:23:23;;;;;;;12.45;8.75;;;;;;;;;;5097711;28;20066;-73
2023/10/02 14:25:49;;;;;;;15.43;11.30;;;;;;;;;;5099292;28;20054;-73
2023/10/02 14:28:15;;;;;;;10.13;7.57;;;;;;;;;;5102259;28;20038;-74
2023/10/02 14:30:41;;;;;;;10.15;6.57;;;;;;;;;;5101051;28;20076;-73
2023/10/02 14:33:07;;;;;;;10.60;6.93;;;;;;;;;;5101679;28;20384;-72
2023/10/02 14:35:34;;;;;;;10.82;7.47;;;;;;;;;;5100315;28;20307;-72
2023/10/02 14:38:01;;;;;;;10.15;6.95;;;;;;;;;;5102174;28;20530;-74
2023/10/02 14:40:29;;;;;;;10.73;7.45;;;;;;;;;;5102926;27;20023;-72
2023/10/02 14:43:00;;;;;;;10.43;8.17;;;;;;;;;;5097915;28;20027;-73
2023/10/02 14:45:26;;;;;;;11.75;7.72;;;;;;;;;;5093169;28;20623;-72
2023/10/02 14:47:58;;;;;;;11.55;7.22;;;;;;;;;;5107023;28;20517;-72
2023/10/02 14:50:24;;;;;;;9.52;6.53;;;;;;;;;;5108093;28;20035;-73
2023/10/02 14:52:50;;;;;;;9.57;6.40;;;;;;;;;;5107918;27;20023;-73
2023/10/02 14:55:19;;;;;;;10.63;6.18;;;;;;;;;;5108175;27;20104;-74
2023/10/02 14:57:45;;;;;;;10.45;7.22;;;;;;;;;;5104492;28;20034;-72
2023/10/02 15:00:12;;;;;;;10.93;6.35;;;;;;;;;;5099729;28;20087;-72
2023/10/02 15:02:37;;;;;;;9.45;6.93;;;;;;;;;;5099736;28;20285;-73
2023/10/02 15:05:03;;;;;;;9.88;6.82;;;;;;;;;;5108797;27;20088;-73
2023/10/02 15:07:29;;;;;;;8.63;6.38;;;;;;;;;;5107010;27;20157;-73
2023/10/02 15:09:55;;;;;;;10.20;6.30;;;;;;;;;;5106641;27;20046;-72
2023/10/02 15:12:21;;;;;;;11.25;6.78;;;;;;;;;;5106216;27;20076;-72
2023/10/02 15:14:46;;;;;;;9.15;6.50;;;;;;;;;;5105379;27;20337;-73
2023/10/02 15:17:11;;;;;;;9.00;6.22;;;;;;;;;;5103442;27;20038;-71
2023/10/02 15:19:37;;;;;;;12.82;6.95;;;;;;;;;;5107881;27;20026;-72
2023/10/02 15:22:02;;;;;;;9.50;6.28;;;;;;;;;;5104530;27;20042;-71
2023/10/02 15:24:30;;;;;;;7.88;6.30;;;;;;;;;;5104999;27;20041;-72
2023/10/02 15:26:57;;;;;;;12.48;7.10;;;;;;;;;;5105224;27;20084;-71
2023/10/02 15:29:22;;;;;;;10.63;6.30;;;;;;;;;;5104952;27;20027;-72
2023/10/02 15:31:48;;;;;;;9.68;6.70;;;;;;;;;;5103456;28;20032;-73
2023/10/02 15:34:16;;;;;;;10.88;6.85;;;;;;;;;;5105233;27;20575;-74